sensor_id;sensor_type;location;lat;lon;timestamp;P1;durP1;ratioP1;P2;durP2;ratioP2
20391;SDS011;10355;53.688;10.078;2024-01-30T00:00:50;7.55;;;4.80;;
20391;SDS011;10355;53.688;10.078;2024-01-30T00:03:33;6.93;;;4.60;;
20391;SDS011;10355;53.688;10.078;2024-01-30T00:06:18;7.28;;;4.45;;
20391;SDS011;10355;53.688;10.078;2024-01-30T00:09:00;8.32;;;4.70;;
20391;SDS011;10355;53.688;10.078;2024-01-30T00:11:43;5.72;;;4.13;;
20391;SDS011;10355;53.688;10.078;2024-01-30T00:14:27;8.85;;;4.72;;
20391;SDS011;10355;53.688;10.078;2024-01-30T00:17:10;7.68;;;4.80;;
20391;SDS011;10355;53.688;10.078;2024-01-30T00:19:53;8.23;;;4.47;;
20391;SDS011;10355;53.688;10.078;2024-01-30T00:22:36;6.95;;;4.57;;
20391;SDS011;10355;53.688;10.078;2024-01-30T00:25:18;8.43;;;4.05;;
20391;SDS011;10355;53.688;10.078;2024-01-30T00:28:01;6.05;;;4.07;;
20391;SDS011;10355;53.688;10.078;2024-01-30T00:30:46;10.65;;;4.25;;
20391;SDS011;10355;53.688;10.078;2024-01-30T00:33:28;9.00;;;4.18;;
20391;SDS011;10355;53.688;10.078;2024-01-30T00:36:11;6.75;;;4.10;;
20391;SDS011;10355;53.688;10.078;2024-01-30T00:38:54;6.00;;;3.92;;
20391;SDS011;10355;53.688;10.078;2024-01-30T00:41:37;8.57;;;4.43;;
20391;SDS011;10355;53.688;10.078;2024-01-30T00:44:19;6.35;;;4.10;;
20391;SDS011;10355;53.688;10.078;2024-01-30T00:47:04;7.15;;;4.50;;
20391;SDS011;10355;53.688;10.078;2024-01-30T00:49:46;6.57;;;4.30;;
20391;SDS011;10355;53.688;10.078;2024-01-30T00:52:29;8.52;;;4.50;;
20391;SDS011;10355;53.688;10.078;2024-01-30T00:55:12;7.57;;;4.05;;
20391;SDS011;10355;53.688;10.078;2024-01-30T00:57:55;6.43;;;4.20;;
20391;SDS011;10355;53.688;10.078;2024-01-30T01:00:38;8.38;;;4.25;;
20391;SDS011;10355;53.688;10.078;2024-01-30T01:03:22;6.63;;;4.20;;
20391;SDS011;10355;53.688;10.078;2024-01-30T01:06:05;7.25;;;4.05;;
20391;SDS011;10355;53.688;10.078;2024-01-30T01:08:48;8.05;;;4.20;;
20391;SDS011;10355;53.688;10.078;2024-01-30T01:11:31;7.68;;;3.97;;
20391;SDS011;10355;53.688;10.078;2024-01-30T01:14:13;7.03;;;4.13;;
20391;SDS011;10355;53.688;10.078;2024-01-30T01:16:56;5.97;;;3.97;;
20391;SDS011;10355;53.688;10.078;2024-01-30T01:19:40;7.35;;;4.10;;
20391;SDS011;10355;53.688;10.078;2024-01-30T01:22:23;7.88;;;4.25;;
20391;SDS011;10355;53.688;10.078;2024-01-30T01:25:06;6.75;;;3.85;;
20391;SDS011;10355;53.688;10.078;2024-01-30T01:27:50;6.32;;;3.97;;
20391;SDS011;10355;53.688;10.078;2024-01-30T01:30:34;10.63;;;4.60;;
20391;SDS011;10355;53.688;10.078;2024-01-30T01:33:17;7.07;;;3.92;;
20391;SDS011;10355;53.688;10.078;2024-01-30T01:36:01;6.25;;;4.22;;
20391;SDS011;10355;53.688;10.078;2024-01-30T01:38:44;6.55;;;3.72;;
20391;SDS011;10355;53.688;10.078;2024-01-30T01:41:29;6.88;;;4.03;;
20391;SDS011;10355;53.688;10.078;2024-01-30T01:44:12;5.95;;;4.03;;
20391;SDS011;10355;53.688;10.078;2024-01-30T01:46:55;5.85;;;4.07;;
20391;SDS011;10355;53.688;10.078;2024-01-30T01:49:37;5.68;;;4.07;;
20391;SDS011;10355;53.688;10.078;2024-01-30T01:52:22;7.03;;;3.80;;
20391;SDS011;10355;53.688;10.078;2024-01-30T01:55:05;7.53;;;4.43;;
20391;SDS011;10355;53.688;10.078;2024-01-30T01:57:52;5.70;;;3.78;;
20391;SDS011;10355;53.688;10.078;2024-01-30T02:00:35;8.40;;;3.78;;
20391;SDS011;10355;53.688;10.078;2024-01-30T02:03:21;6.18;;;3.88;;
20391;SDS011;10355;53.688;10.078;2024-01-30T02:06:04;5.75;;;3.97;;
20391;SDS011;10355;53.688;10.078;2024-01-30T02:08:48;7.32;;;3.83;;
20391;SDS011;10355;53.688;10.078;2024-01-30T02:11:31;7.78;;;3.60;;
20391;SDS011;10355;53.688;10.078;2024-01-30T02:14:14;7.30;;;4.00;;
20391;SDS011;10355;53.688;10.078;2024-01-30T02:16:57;8.10;;;3.65;;
20391;SDS011;10355;53.688;10.078;2024-01-30T02:19:39;7.13;;;3.92;;
20391;SDS011;10355;53.688;10.078;2024-01-30T02:22:24;5.78;;;3.83;;
20391;SDS011;10355;53.688;10.078;2024-01-30T02:25:07;5.70;;;3.92;;
20391;SDS011;10355;53.688;10.078;2024-01-30T02:27:50;7.50;;;4.00;;
20391;SDS011;10355;53.688;10.078;2024-01-30T02:30:33;8.25;;;3.90;;
20391;SDS011;10355;53.688;10.078;2024-01-30T02:33:15;6.47;;;3.78;;
20391;SDS011;10355;53.688;10.078;2024-01-30T02:35:58;12.68;;;3.75;;
20391;SDS011;10355;53.688;10.078;2024-01-30T02:38:42;7.80;;;3.70;;
20391;SDS011;10355;53.688;10.078;2024-01-30T02:41:25;6.20;;;4.07;;
20391;SDS011;10355;53.688;10.078;2024-01-30T02:44:08;6.45;;;4.00;;
20391;SDS011;10355;53.688;10.078;2024-01-30T02:46:50;4.90;;;3.50;;
20391;SDS011;10355;53.688;10.078;2024-01-30T02:49:35;5.13;;;3.47;;
20391;SDS011;10355;53.688;10.078;2024-01-30T02:52:18;6.57;;;3.60;;
20391;SDS011;10355;53.688;10.078;2024-01-30T02:55:03;5.80;;;3.65;;
20391;SDS011;10355;53.688;10.078;2024-01-30T02:57:46;5.88;;;3.85;;
20391;SDS011;10355;53.688;10.078;2024-01-30T03:00:29;5.88;;;3.67;;
20391;SDS011;10355;53.688;10.078;2024-01-30T03:03:12;8.18;;;4.00;;
20391;SDS011;10355;53.688;10.078;2024-01-30T03:05:54;5.50;;;3.60;;
20391;SDS011;10355;53.688;10.078;2024-01-30T03:08:37;6.95;;;3.50;;
20391;SDS011;10355;53.688;10.078;2024-01-30T03:11:21;6.13;;;3.72;;
20391;SDS011;10355;53.688;10.078;2024-01-30T03:14:04;5.65;;;3.60;;
20391;SDS011;10355;53.688;10.078;2024-01-30T03:16:47;5.53;;;3.50;;
20391;SDS011;10355;53.688;10.078;2024-01-30T03:19:29;7.18;;;3.80;;
20391;SDS011;10355;53.688;10.078;2024-01-30T03:22:12;5.93;;;3.70;;
20391;SDS011;10355;53.688;10.078;2024-01-30T03:24:55;5.68;;;3.58;;
20391;SDS011;10355;53.688;10.078;2024-01-30T03:27:39;6.10;;;3.75;;
20391;SDS011;10355;53.688;10.078;2024-01-30T03:30:22;6.65;;;3.90;;
20391;SDS011;10355;53.688;10.078;2024-01-30T03:33:05;6.47;;;3.67;;
20391;SDS011;10355;53.688;10.078;2024-01-30T03:35:47;7.13;;;3.90;;
20391;SDS011;10355;53.688;10.078;2024-01-30T03:38:30;5.78;;;3.50;;
20391;SDS011;10355;53.688;10.078;2024-01-30T03:41:14;5.80;;;3.78;;
20391;SDS011;10355;53.688;10.078;2024-01-30T03:43:58;5.47;;;3.70;;
20391;SDS011;10355;53.688;10.078;2024-01-30T03:46:40;6.50;;;4.07;;
20391;SDS011;10355;53.688;10.078;2024-01-30T03:49:23;5.30;;;3.80;;
20391;SDS011;10355;53.688;10.078;2024-01-30T03:52:06;6.72;;;3.72;;
20391;SDS011;10355;53.688;10.078;2024-01-30T03:54:49;6.68;;;3.80;;
20391;SDS011;10355;53.688;10.078;2024-01-30T03:57:31;5.40;;;3.70;;
20391;SDS011;10355;53.688;10.078;2024-01-30T04:00:16;6.80;;;3.97;;
20391;SDS011;10355;53.688;10.078;2024-01-30T04:02:59;6.65;;;3.90;;
20391;SDS011;10355;53.688;10.078;2024-01-30T04:05:42;6.55;;;3.80;;
20391;SDS011;10355;53.688;10.078;2024-01-30T04:08:25;6.43;;;4.07;;
20391;SDS011;10355;53.688;10.078;2024-01-30T04:11:08;7.28;;;4.03;;
20391;SDS011;10355;53.688;10.078;2024-01-30T04:13:50;10.45;;;4.15;;
20391;SDS011;10355;53.688;10.078;2024-01-30T04:16:34;9.63;;;4.32;;
20391;SDS011;10355;53.688;10.078;2024-01-30T04:19:17;6.38;;;4.25;;
20391;SDS011;10355;53.688;10.078;2024-01-30T04:22:00;6.68;;;3.97;;
20391;SDS011;10355;53.688;10.078;2024-01-30T04:24:43;6.50;;;3.90;;
20391;SDS011;10355;53.688;10.078;2024-01-30T04:27:26;7.35;;;3.70;;
20391;SDS011;10355;53.688;10.078;2024-01-30T04:30:09;6.10;;;4.10;;
20391;SDS011;10355;53.688;10.078;2024-01-30T04:32:53;7.03;;;3.83;;
20391;SDS011;10355;53.688;10.078;2024-01-30T04:35:35;6.32;;;4.13;;
20391;SDS011;10355;53.688;10.078;2024-01-30T04:38:18;6.97;;;4.43;;
20391;SDS011;10355;53.688;10.078;2024-01-30T04:41:01;6.85;;;3.88;;
20391;SDS011;10355;53.688;10.078;2024-01-30T04:43:44;8.82;;;4.30;;
20391;SDS011;10355;53.688;10.078;2024-01-30T04:46:27;6.00;;;4.18;;
20391;SDS011;10355;53.688;10.078;2024-01-30T04:49:12;6.03;;;4.00;;
20391;SDS011;10355;53.688;10.078;2024-01-30T04:51:54;5.50;;;3.88;;
20391;SDS011;10355;53.688;10.078;2024-01-30T04:54:38;6.20;;;4.28;;
20391;SDS011;10355;53.688;10.078;2024-01-30T04:57:20;6.97;;;3.83;;
20391;SDS011;10355;53.688;10.078;2024-01-30T05:00:03;6.13;;;4.22;;
20391;SDS011;10355;53.688;10.078;2024-01-30T05:02:46;8.02;;;4.50;;
20391;SDS011;10355;53.688;10.078;2024-01-30T05:05:30;6.68;;;4.10;;
20391;SDS011;10355;53.688;10.078;2024-01-30T05:08:13;9.38;;;5.10;;
20391;SDS011;10355;53.688;10.078;2024-01-30T05:10:56;6.95;;;3.88;;
20391;SDS011;10355;53.688;10.078;2024-01-30T05:13:38;9.15;;;4.50;;
20391;SDS011;10355;53.688;10.078;2024-01-30T05:16:21;6.38;;;4.30;;
20391;SDS011;10355;53.688;10.078;2024-01-30T05:19:04;5.78;;;4.07;;
20391;SDS011;10355;53.688;10.078;2024-01-30T05:21:48;6.13;;;4.20;;
20391;SDS011;10355;53.688;10.078;2024-01-30T05:24:31;6.82;;;4.38;;
20391;SDS011;10355;53.688;10.078;2024-01-30T05:27:14;6.63;;;4.30;;
20391;SDS011;10355;53.688;10.078;2024-01-30T05:29:57;5.60;;;4.20;;
20391;SDS011;10355;53.688;10.078;2024-01-30T05:32:39;6.63;;;4.15;;
20391;SDS011;10355;53.688;10.078;2024-01-30T05:35:22;7.80;;;4.70;;
20391;SDS011;10355;53.688;10.078;2024-01-30T05:38:09;6.82;;;4.57;;
20391;SDS011;10355;53.688;10.078;2024-01-30T05:40:52;5.88;;;4.30;;
20391;SDS011;10355;53.688;10.078;2024-01-30T05:43:34;7.25;;;4.55;;
20391;SDS011;10355;53.688;10.078;2024-01-30T05:46:17;6.50;;;4.57;;
20391;SDS011;10355;53.688;10.078;2024-01-30T05:49:04;7.00;;;4.30;;
20391;SDS011;10355;53.688;10.078;2024-01-30T05:51:47;8.40;;;4.63;;
20391;SDS011;10355;53.688;10.078;2024-01-30T05:54:31;7.95;;;5.22;;
20391;SDS011;10355;53.688;10.078;2024-01-30T05:57:14;8.20;;;4.47;;
20391;SDS011;10355;53.688;10.078;2024-01-30T05:59:57;7.25;;;4.75;;
20391;SDS011;10355;53.688;10.078;2024-01-30T06:02:39;6.68;;;4.45;;
20391;SDS011;10355;53.688;10.078;2024-01-30T06:05:22;10.25;;;4.47;;
20391;SDS011;10355;53.688;10.078;2024-01-30T06:08:05;7.55;;;4.68;;
20391;SDS011;10355;53.688;10.078;2024-01-30T06:10:49;8.18;;;4.97;;
20391;SDS011;10355;53.688;10.078;2024-01-30T06:13:32;7.78;;;4.40;;
20391;SDS011;10355;53.688;10.078;2024-01-30T06:16:15;6.50;;;4.35;;
20391;SDS011;10355;53.688;10.078;2024-01-30T06:18:58;7.35;;;4.82;;
20391;SDS011;10355;53.688;10.078;2024-01-30T06:21:41;7.43;;;5.10;;
20391;SDS011;10355;53.688;10.078;2024-01-30T06:24:24;9.57;;;4.75;;
20391;SDS011;10355;53.688;10.078;2024-01-30T06:27:08;8.02;;;5.47;;
20391;SDS011;10355;53.688;10.078;2024-01-30T06:29:51;7.78;;;5.05;;
20391;SDS011;10355;53.688;10.078;2024-01-30T06:32:34;7.65;;;4.85;;
20391;SDS011;10355;53.688;10.078;2024-01-30T06:35:17;9.27;;;5.35;;
20391;SDS011;10355;53.688;10.078;2024-01-30T06:38:00;8.13;;;4.97;;
20391;SDS011;10355;53.688;10.078;2024-01-30T06:40:43;8.50;;;4.70;;
20391;SDS011;10355;53.688;10.078;2024-01-30T06:43:27;7.93;;;4.93;;
20391;SDS011;10355;53.688;10.078;2024-01-30T06:46:10;7.55;;;5.07;;
20391;SDS011;10355;53.688;10.078;2024-01-30T06:48:53;8.45;;;5.20;;
20391;SDS011;10355;53.688;10.078;2024-01-30T06:51:35;7.13;;;4.82;;
20391;SDS011;10355;53.688;10.078;2024-01-30T06:54:18;8.15;;;5.10;;
20391;SDS011;10355;53.688;10.078;2024-01-30T06:57:01;6.80;;;4.75;;
20391;SDS011;10355;53.688;10.078;2024-01-30T06:59:45;9.70;;;5.13;;
20391;SDS011;10355;53.688;10.078;2024-01-30T07:02:28;11.25;;;5.22;;
20391;SDS011;10355;53.688;10.078;2024-01-30T07:05:11;9.23;;;5.38;;
20391;SDS011;10355;53.688;10.078;2024-01-30T07:07:54;7.70;;;4.97;;
20391;SDS011;10355;53.688;10.078;2024-01-30T07:10:37;7.38;;;4.70;;
20391;SDS011;10355;53.688;10.078;2024-01-30T07:13:20;7.30;;;4.82;;
20391;SDS011;10355;53.688;10.078;2024-01-30T07:16:05;7.60;;;4.93;;
20391;SDS011;10355;53.688;10.078;2024-01-30T07:18:48;8.18;;;5.20;;
20391;SDS011;10355;53.688;10.078;2024-01-30T07:21:31;11.80;;;5.53;;
20391;SDS011;10355;53.688;10.078;2024-01-30T07:24:14;8.73;;;5.35;;
20391;SDS011;10355;53.688;10.078;2024-01-30T07:26:57;8.70;;;5.30;;
20391;SDS011;10355;53.688;10.078;2024-01-30T07:29:40;9.73;;;5.20;;
20391;SDS011;10355;53.688;10.078;2024-01-30T07:32:24;8.80;;;5.20;;
20391;SDS011;10355;53.688;10.078;2024-01-30T07:35:07;7.90;;;4.85;;
20391;SDS011;10355;53.688;10.078;2024-01-30T07:37:50;9.20;;;5.00;;
20391;SDS011;10355;53.688;10.078;2024-01-30T07:40:33;7.70;;;5.38;;
20391;SDS011;10355;53.688;10.078;2024-01-30T07:43:16;9.07;;;5.07;;
20391;SDS011;10355;53.688;10.078;2024-01-30T07:45:58;8.43;;;5.28;;
20391;SDS011;10355;53.688;10.078;2024-01-30T07:48:43;7.57;;;4.97;;
20391;SDS011;10355;53.688;10.078;2024-01-30T07:51:26;9.18;;;5.47;;
20391;SDS011;10355;53.688;10.078;2024-01-30T07:54:10;7.60;;;5.00;;
20391;SDS011;10355;53.688;10.078;2024-01-30T07:56:52;7.95;;;5.10;;
20391;SDS011;10355;53.688;10.078;2024-01-30T07:59:35;9.77;;;5.53;;
20391;SDS011;10355;53.688;10.078;2024-01-30T08:02:18;8.65;;;5.18;;
20391;SDS011;10355;53.688;10.078;2024-01-30T08:05:03;7.38;;;4.90;;
20391;SDS011;10355;53.688;10.078;2024-01-30T08:07:46;7.95;;;5.05;;
20391;SDS011;10355;53.688;10.078;2024-01-30T08:10:29;9.68;;;5.60;;
20391;SDS011;10355;53.688;10.078;2024-01-30T08:13:11;10.23;;;5.82;;
20391;SDS011;10355;53.688;10.078;2024-01-30T08:15:54;8.90;;;5.38;;
20391;SDS011;10355;53.688;10.078;2024-01-30T08:18:37;8.98;;;5.78;;
20391;SDS011;10355;53.688;10.078;2024-01-30T08:21:21;9.98;;;6.03;;
20391;SDS011;10355;53.688;10.078;2024-01-30T08:24:04;8.07;;;5.10;;
20391;SDS011;10355;53.688;10.078;2024-01-30T08:26:48;8.82;;;5.47;;
20391;SDS011;10355;53.688;10.078;2024-01-30T08:29:30;8.50;;;5.07;;
20391;SDS011;10355;53.688;10.078;2024-01-30T08:32:13;11.27;;;5.88;;
20391;SDS011;10355;53.688;10.078;2024-01-30T08:34:56;8.93;;;5.63;;
20391;SDS011;10355;53.688;10.078;2024-01-30T08:37:40;8.55;;;5.50;;
20391;SDS011;10355;53.688;10.078;2024-01-30T08:40:23;11.23;;;5.72;;
20391;SDS011;10355;53.688;10.078;2024-01-30T08:43:06;12.75;;;5.72;;
20391;SDS011;10355;53.688;10.078;2024-01-30T08:45:49;12.45;;;5.78;;
20391;SDS011;10355;53.688;10.078;2024-01-30T08:48:32;9.18;;;5.65;;
20391;SDS011;10355;53.688;10.078;2024-01-30T08:51:15;7.85;;;5.20;;
20391;SDS011;10355;53.688;10.078;2024-01-30T08:53:59;10.82;;;6.10;;
20391;SDS011;10355;53.688;10.078;2024-01-30T08:56:42;9.10;;;5.72;;
20391;SDS011;10355;53.688;10.078;2024-01-30T08:59:25;10.95;;;5.50;;
20391;SDS011;10355;53.688;10.078;2024-01-30T09:02:08;9.20;;;5.80;;
20391;SDS011;10355;53.688;10.078;2024-01-30T09:04:53;9.07;;;5.95;;
20391;SDS011;10355;53.688;10.078;2024-01-30T09:07:36;9.50;;;5.53;;
20391;SDS011;10355;53.688;10.078;2024-01-30T09:10:21;8.10;;;5.75;;
20391;SDS011;10355;53.688;10.078;2024-01-30T09:13:04;10.57;;;5.50;;
20391;SDS011;10355;53.688;10.078;2024-01-30T09:15:46;10.77;;;5.95;;
20391;SDS011;10355;53.688;10.078;2024-01-30T09:18:29;8.95;;;6.00;;
20391;SDS011;10355;53.688;10.078;2024-01-30T09:21:12;9.85;;;6.00;;
20391;SDS011;10355;53.688;10.078;2024-01-30T09:24:01;10.82;;;5.82;;
20391;SDS011;10355;53.688;10.078;2024-01-30T09:26:45;10.07;;;5.85;;
20391;SDS011;10355;53.688;10.078;2024-01-30T09:29:28;11.73;;;6.15;;
20391;SDS011;10355;53.688;10.078;2024-01-30T09:32:11;10.25;;;5.82;;
20391;SDS011;10355;53.688;10.078;2024-01-30T09:34:54;10.38;;;5.70;;
20391;SDS011;10355;53.688;10.078;2024-01-30T09:37:36;8.88;;;5.55;;
20391;SDS011;10355;53.688;10.078;2024-01-30T09:40:19;13.02;;;6.40;;
20391;SDS011;10355;53.688;10.078;2024-01-30T09:43:04;11.63;;;5.88;;
20391;SDS011;10355;53.688;10.078;2024-01-30T09:45:47;9.68;;;5.88;;
20391;SDS011;10355;53.688;10.078;2024-01-30T09:48:30;9.95;;;6.07;;
20391;SDS011;10355;53.688;10.078;2024-01-30T09:51:14;11.85;;;6.03;;
20391;SDS011;10355;53.688;10.078;2024-01-30T09:53:57;10.32;;;5.93;;
20391;SDS011;10355;53.688;10.078;2024-01-30T09:56:40;11.75;;;5.88;;
20391;SDS011;10355;53.688;10.078;2024-01-30T09:59:24;9.98;;;5.70;;
20391;SDS011;10355;53.688;10.078;2024-01-30T10:02:07;9.65;;;5.93;;
20391;SDS011;10355;53.688;10.078;2024-01-30T10:04:51;10.73;;;5.72;;
20391;SDS011;10355;53.688;10.078;2024-01-30T10:07:34;9.35;;;5.82;;
20391;SDS011;10355;53.688;10.078;2024-01-30T10:10:17;8.23;;;5.60;;
20391;SDS011;10355;53.688;10.078;2024-01-30T10:13:00;10.60;;;6.38;;
20391;SDS011;10355;53.688;10.078;2024-01-30T10:15:47;11.00;;;5.88;;
20391;SDS011;10355;53.688;10.078;2024-01-30T10:18:30;11.23;;;6.10;;
20391;SDS011;10355;53.688;10.078;2024-01-30T10:21:13;10.50;;;6.00;;
20391;SDS011;10355;53.688;10.078;2024-01-30T10:23:56;11.95;;;6.40;;
20391;SDS011;10355;53.688;10.078;2024-01-30T10:26:39;9.73;;;6.28;;
20391;SDS011;10355;53.688;10.078;2024-01-30T10:29:21;10.98;;;6.20;;
20391;SDS011;10355;53.688;10.078;2024-01-30T10:32:06;10.15;;;6.32;;
20391;SDS011;10355;53.688;10.078;2024-01-30T10:34:50;10.75;;;5.80;;
20391;SDS011;10355;53.688;10.078;2024-01-30T10:37:33;9.30;;;5.82;;
20391;SDS011;10355;53.688;10.078;2024-01-30T10:40:16;11.32;;;6.30;;
20391;SDS011;10355;53.688;10.078;2024-01-30T10:43:01;9.63;;;5.93;;
20391;SDS011;10355;53.688;10.078;2024-01-30T10:45:45;12.73;;;6.35;;
20391;SDS011;10355;53.688;10.078;2024-01-30T10:48:32;7.53;;;5.25;;
20391;SDS011;10355;53.688;10.078;2024-01-30T10:51:21;11.40;;;5.72;;
20391;SDS011;10355;53.688;10.078;2024-01-30T10:54:04;9.15;;;6.10;;
20391;SDS011;10355;53.688;10.078;2024-01-30T10:56:47;10.48;;;6.05;;
20391;SDS011;10355;53.688;10.078;2024-01-30T10:59:31;10.60;;;6.03;;
20391;SDS011;10355;53.688;10.078;2024-01-30T11:02:14;10.32;;;5.78;;
20391;SDS011;10355;53.688;10.078;2024-01-30T11:04:59;9.82;;;6.10;;
20391;SDS011;10355;53.688;10.078;2024-01-30T11:07:42;11.23;;;6.05;;
20391;SDS011;10355;53.688;10.078;2024-01-30T11:10:25;11.35;;;6.35;;
20391;SDS011;10355;53.688;10.078;2024-01-30T11:13:09;10.85;;;5.95;;
20391;SDS011;10355;53.688;10.078;2024-01-30T11:15:53;10.98;;;5.95;;
20391;SDS011;10355;53.688;10.078;2024-01-30T11:18:35;9.13;;;5.95;;
20391;SDS011;10355;53.688;10.078;2024-01-30T11:21:20;9.90;;;5.55;;
20391;SDS011;10355;53.688;10.078;2024-01-30T11:24:03;11.63;;;5.68;;
20391;SDS011;10355;53.688;10.078;2024-01-30T11:26:46;11.40;;;6.25;;
20391;SDS011;10355;53.688;10.078;2024-01-30T11:29:30;11.63;;;6.45;;
20391;SDS011;10355;53.688;10.078;2024-01-30T11:32:21;10.13;;;6.10;;
20391;SDS011;10355;53.688;10.078;2024-01-30T11:35:05;8.38;;;5.40;;
20391;SDS011;10355;53.688;10.078;2024-01-30T11:37:52;10.38;;;6.20;;
20391;SDS011;10355;53.688;10.078;2024-01-30T11:40:36;10.25;;;5.45;;
20391;SDS011;10355;53.688;10.078;2024-01-30T11:43:19;10.68;;;6.22;;
20391;SDS011;10355;53.688;10.078;2024-01-30T11:46:02;10.80;;;6.00;;
20391;SDS011;10355;53.688;10.078;2024-01-30T11:48:45;9.57;;;5.97;;
20391;SDS011;10355;53.688;10.078;2024-01-30T11:51:30;9.25;;;5.63;;
20391;SDS011;10355;53.688;10.078;2024-01-30T11:54:15;10.20;;;5.80;;
20391;SDS011;10355;53.688;10.078;2024-01-30T11:56:58;12.13;;;6.57;;
20391;SDS011;10355;53.688;10.078;2024-01-30T11:59:41;10.20;;;5.90;;
20391;SDS011;10355;53.688;10.078;2024-01-30T12:02:24;8.88;;;5.57;;
20391;SDS011;10355;53.688;10.078;2024-01-30T12:05:07;10.77;;;6.35;;
20391;SDS011;10355;53.688;10.078;2024-01-30T12:07:50;9.90;;;5.95;;
20391;SDS011;10355;53.688;10.078;2024-01-30T12:10:35;9.52;;;5.68;;
20391;SDS011;10355;53.688;10.078;2024-01-30T12:13:18;9.38;;;5.65;;
20391;SDS011;10355;53.688;10.078;2024-01-30T12:16:01;12.70;;;6.65;;
20391;SDS011;10355;53.688;10.078;2024-01-30T12:18:44;10.40;;;6.28;;
20391;SDS011;10355;53.688;10.078;2024-01-30T12:21:27;9.55;;;5.95;;
20391;SDS011;10355;53.688;10.078;2024-01-30T12:24:10;10.52;;;6.20;;
20391;SDS011;10355;53.688;10.078;2024-01-30T12:26:57;9.82;;;5.72;;
20391;SDS011;10355;53.688;10.078;2024-01-30T12:29:41;9.80;;;5.40;;
20391;SDS011;10355;53.688;10.078;2024-01-30T12:32:24;12.20;;;6.55;;
20391;SDS011;10355;53.688;10.078;2024-01-30T12:35:07;13.88;;;5.85;;
20391;SDS011;10355;53.688;10.078;2024-01-30T12:37:50;12.18;;;5.70;;
20391;SDS011;10355;53.688;10.078;2024-01-30T12:40:33;10.73;;;6.00;;
20391;SDS011;10355;53.688;10.078;2024-01-30T12:43:19;9.25;;;5.53;;
20391;SDS011;10355;53.688;10.078;2024-01-30T12:46:16;10.20;;;5.88;;
20391;SDS011;10355;53.688;10.078;2024-01-30T12:49:00;11.65;;;5.82;;
20391;SDS011;10355;53.688;10.078;2024-01-30T12:51:42;9.80;;;6.30;;
20391;SDS011;10355;53.688;10.078;2024-01-30T12:54:25;10.48;;;5.68;;
20391;SDS011;10355;53.688;10.078;2024-01-30T12:57:08;13.13;;;6.05;;
20391;SDS011;10355;53.688;10.078;2024-01-30T12:59:52;11.45;;;5.88;;
20391;SDS011;10355;53.688;10.078;2024-01-30T13:02:35;11.18;;;6.05;;
20391;SDS011;10355;53.688;10.078;2024-01-30T13:05:18;11.77;;;6.22;;
20391;SDS011;10355;53.688;10.078;2024-01-30T13:08:02;10.05;;;5.70;;
20391;SDS011;10355;53.688;10.078;2024-01-30T13:10:45;11.70;;;5.50;;
20391;SDS011;10355;53.688;10.078;2024-01-30T13:13:30;9.48;;;5.70;;
20391;SDS011;10355;53.688;10.078;2024-01-30T13:16:15;11.05;;;5.57;;
20391;SDS011;10355;53.688;10.078;2024-01-30T13:18:58;14.98;;;5.60;;
20391;SDS011;10355;53.688;10.078;2024-01-30T13:21:43;9.93;;;4.88;;
20391;SDS011;10355;53.688;10.078;2024-01-30T13:24:26;8.85;;;4.95;;
20391;SDS011;10355;53.688;10.078;2024-01-30T13:27:09;10.15;;;4.90;;
20391;SDS011;10355;53.688;10.078;2024-01-30T13:29:51;7.82;;;4.75;;
20391;SDS011;10355;53.688;10.078;2024-01-30T13:32:35;9.10;;;4.97;;
20391;SDS011;10355;53.688;10.078;2024-01-30T13:35:18;10.50;;;5.20;;
20391;SDS011;10355;53.688;10.078;2024-01-30T13:38:01;10.00;;;5.55;;
20391;SDS011;10355;53.688;10.078;2024-01-30T13:40:44;7.80;;;5.00;;
20391;SDS011;10355;53.688;10.078;2024-01-30T13:43:27;10.93;;;5.25;;
20391;SDS011;10355;53.688;10.078;2024-01-30T13:46:10;7.60;;;5.18;;
20391;SDS011;10355;53.688;10.078;2024-01-30T13:48:54;8.45;;;4.80;;
20391;SDS011;10355;53.688;10.078;2024-01-30T13:51:37;10.95;;;5.43;;
20391;SDS011;10355;53.688;10.078;2024-01-30T13:54:20;8.70;;;5.18;;
20391;SDS011;10355;53.688;10.078;2024-01-30T13:57:05;7.40;;;4.55;;
20391;SDS011;10355;53.688;10.078;2024-01-30T13:59:49;9.25;;;5.15;;
20391;SDS011;10355;53.688;10.078;2024-01-30T14:02:32;9.18;;;5.15;;
20391;SDS011;10355;53.688;10.078;2024-01-30T14:05:17;8.40;;;5.18;;
20391;SDS011;10355;53.688;10.078;2024-01-30T14:08:00;10.10;;;5.28;;
20391;SDS011;10355;53.688;10.078;2024-01-30T14:10:43;8.10;;;5.55;;
20391;SDS011;10355;53.688;10.078;2024-01-30T14:13:26;7.45;;;5.05;;
20391;SDS011;10355;53.688;10.078;2024-01-30T14:16:09;9.80;;;5.40;;
20391;SDS011;10355;53.688;10.078;2024-01-30T14:18:52;10.95;;;5.15;;
20391;SDS011;10355;53.688;10.078;2024-01-30T14:21:37;8.57;;;4.78;;
20391;SDS011;10355;53.688;10.078;2024-01-30T14:24:22;7.78;;;5.10;;
20391;SDS011;10355;53.688;10.078;2024-01-30T14:27:04;9.85;;;5.10;;
20391;SDS011;10355;53.688;10.078;2024-01-30T14:29:49;7.45;;;4.85;;
20391;SDS011;10355;53.688;10.078;2024-01-30T14:32:32;9.32;;;5.20;;
20391;SDS011;10355;53.688;10.078;2024-01-30T14:35:14;12.52;;;5.60;;
20391;SDS011;10355;53.688;10.078;2024-01-30T14:37:59;9.90;;;4.95;;
20391;SDS011;10355;53.688;10.078;2024-01-30T14:40:42;10.10;;;5.15;;
20391;SDS011;10355;53.688;10.078;2024-01-30T14:43:25;9.30;;;5.38;;
20391;SDS011;10355;53.688;10.078;2024-01-30T14:46:08;7.63;;;5.00;;
20391;SDS011;10355;53.688;10.078;2024-01-30T14:48:51;9.43;;;5.35;;
20391;SDS011;10355;53.688;10.078;2024-01-30T14:51:34;7.72;;;4.90;;
20391;SDS011;10355;53.688;10.078;2024-01-30T14:54:18;7.93;;;5.20;;
20391;SDS011;10355;53.688;10.078;2024-01-30T14:57:01;9.38;;;5.43;;
20391;SDS011;10355;53.688;10.078;2024-01-30T14:59:43;10.02;;;5.13;;
20391;SDS011;10355;53.688;10.078;2024-01-30T15:02:26;11.13;;;5.80;;
20391;SDS011;10355;53.688;10.078;2024-01-30T15:05:09;10.70;;;4.97;;
20391;SDS011;10355;53.688;10.078;2024-01-30T15:07:53;8.52;;;5.45;;
20391;SDS011;10355;53.688;10.078;2024-01-30T15:10:37;9.65;;;4.93;;
20391;SDS011;10355;53.688;10.078;2024-01-30T15:13:20;9.95;;;5.60;;
20391;SDS011;10355;53.688;10.078;2024-01-30T15:16:03;9.50;;;5.28;;
20391;SDS011;10355;53.688;10.078;2024-01-30T15:18:47;8.93;;;5.28;;
20391;SDS011;10355;53.688;10.078;2024-01-30T15:21:30;8.85;;;5.05;;
20391;SDS011;10355;53.688;10.078;2024-01-30T15:24:13;10.40;;;5.70;;
20391;SDS011;10355;53.688;10.078;2024-01-30T15:26:59;8.48;;;5.18;;
20391;SDS011;10355;53.688;10.078;2024-01-30T15:29:42;9.48;;;5.05;;
20391;SDS011;10355;53.688;10.078;2024-01-30T15:32:24;9.10;;;5.38;;
20391;SDS011;10355;53.688;10.078;2024-01-30T15:35:07;9.98;;;5.18;;
20391;SDS011;10355;53.688;10.078;2024-01-30T15:37:51;8.90;;;4.80;;
20391;SDS011;10355;53.688;10.078;2024-01-30T15:40:34;11.55;;;4.88;;
20391;SDS011;10355;53.688;10.078;2024-01-30T15:43:18;8.05;;;4.95;;
20391;SDS011;10355;53.688;10.078;2024-01-30T15:46:01;8.18;;;5.25;;
20391;SDS011;10355;53.688;10.078;2024-01-30T15:48:44;9.05;;;4.65;;
20391;SDS011;10355;53.688;10.078;2024-01-30T15:51:28;8.90;;;4.97;;
20391;SDS011;10355;53.688;10.078;2024-01-30T15:54:11;8.93;;;4.65;;
20391;SDS011;10355;53.688;10.078;2024-01-30T15:56:54;10.93;;;4.65;;
20391;SDS011;10355;53.688;10.078;2024-01-30T15:59:38;9.60;;;4.85;;
20391;SDS011;10355;53.688;10.078;2024-01-30T16:02:21;8.98;;;5.20;;
20391;SDS011;10355;53.688;10.078;2024-01-30T16:05:04;8.20;;;5.15;;